createdAt,value
2023-05-05T00:00:00.051Z,74.66
2023-05-05T00:01:00.106Z,74.80
2023-05-05T00:02:00.113Z,75.00
2023-05-05T00:03:00.142Z,74.80
2023-05-05T00:04:00.082Z,75.21
2023-05-05T00:05:00.029Z,74.80
2023-05-05T00:05:59.984Z,75.00
2023-05-05T00:07:00.002Z,74.90
2023-05-05T00:07:59.955Z,74.90
2023-05-05T00:08:59.978Z,74.80
2023-05-05T00:09:59.941Z,74.69
2023-05-05T00:10:59.914Z,74.80
2023-05-05T00:11:59.915Z,74.69
2023-05-05T00:12:59.996Z,74.90
2023-05-05T00:13:59.889Z,75.21
2023-05-05T00:14:59.865Z,74.69
2023-05-05T00:15:59.847Z,75.10
2023-05-05T00:16:59.888Z,74.59
2023-05-05T00:17:59.924Z,74.59
2023-05-05T00:18:59.842Z,74.90
2023-05-05T00:19:59.813Z,74.69
2023-05-05T00:20:59.806Z,74.59
2023-05-05T00:21:59.788Z,74.69
2023-05-05T00:22:59.779Z,74.90
2023-05-05T00:23:59.762Z,75.10
2023-05-05T00:24:59.753Z,75.10
2023-05-05T00:25:59.715Z,75.00
2023-05-05T00:26:59.718Z,74.80
2023-05-05T00:27:59.729Z,74.29
2023-05-05T00:28:59.688Z,74.29
2023-05-05T00:29:59.697Z,74.29
2023-05-05T00:30:59.705Z,74.18
2023-05-05T00:31:59.658Z,74.39
2023-05-05T00:32:59.710Z,73.98
2023-05-05T00:33:59.653Z,74.18
2023-05-05T00:34:59.635Z,73.77
2023-05-05T00:35:59.611Z,73.47
2023-05-05T00:36:59.592Z,73.88
2023-05-05T00:37:59.587Z,73.68
2023-05-05T00:38:59.572Z,73.68
2023-05-05T00:39:59.576Z,73.98
2023-05-05T00:40:59.548Z,73.68
2023-05-05T00:41:59.576Z,73.47
2023-05-05T00:42:59.575Z,74.18
2023-05-05T00:43:59.525Z,73.77
2023-05-05T00:44:59.504Z,73.57
2023-05-05T00:45:59.516Z,73.27
2023-05-05T00:46:59.487Z,73.23
2023-05-05T00:47:59.506Z,73.23
2023-05-05T00:48:59.495Z,72.82
2023-05-05T00:49:59.424Z,73.23
2023-05-05T00:50:59.436Z,73.23
2023-05-05T00:51:59.394Z,72.72
2023-05-05T00:52:59.405Z,72.31
2023-05-05T00:53:59.392Z,72.62
2023-05-05T00:54:59.368Z,72.62
2023-05-05T00:55:59.348Z,72.52
2023-05-05T00:56:59.353Z,73.13
2023-05-05T00:57:59.355Z,72.72
2023-05-05T00:58:59.322Z,72.72
2023-05-05T00:59:59.318Z,72.62
2023-05-05T01:00:59.294Z,72.31
2023-05-05T01:01:59.543Z,72.52
2023-05-05T01:02:59.344Z,72.31
2023-05-05T01:03:59.397Z,72.31
2023-05-05T01:04:59.227Z,71.80
2023-05-05T01:05:59.256Z,72.21
2023-05-05T01:06:59.222Z,72.52
2023-05-05T01:07:59.226Z,72.41
2023-05-05T01:08:59.227Z,71.70
2023-05-05T01:10:14.940Z,72.00
2023-05-05T01:11:00.169Z,72.11
2023-05-05T01:11:59.163Z,72.31
2023-05-05T01:12:59.179Z,72.11
2023-05-05T01:13:59.132Z,72.00
2023-05-05T01:14:59.121Z,71.91
2023-05-05T01:15:59.182Z,72.00
2023-05-05T01:16:59.089Z,72.00
2023-05-05T01:17:59.141Z,72.34
2023-05-05T01:18:59.064Z,72.11
2023-05-05T01:19:59.076Z,72.31
2023-05-05T01:20:59.056Z,72.04
2023-05-05T01:21:59.042Z,72.34
2023-05-05T01:22:59.013Z,72.24
2023-05-05T01:23:59.003Z,72.34
2023-05-05T01:24:59.004Z,72.24
2023-05-05T01:25:58.983Z,72.34
2023-05-05T01:26:58.968Z,72.34
2023-05-05T01:27:58.959Z,72.65
2023-05-05T01:28:58.957Z,72.86
2023-05-05T01:29:58.953Z,72.86
2023-05-05T01:30:58.918Z,72.75
2023-05-05T01:31:58.924Z,72.34
2023-05-05T01:32:58.923Z,72.34
2023-05-05T01:33:58.900Z,72.34
2023-05-05T01:34:58.868Z,72.65
2023-05-05T01:35:58.868Z,72.96
2023-05-05T01:36:58.842Z,72.75
2023-05-05T01:37:58.834Z,72.65
2023-05-05T01:38:58.824Z,72.45
2023-05-05T01:39:58.805Z,72.65
2023-05-05T01:40:58.809Z,72.48
2023-05-05T01:41:58.774Z,72.58
2023-05-05T01:42:58.842Z,72.99
2023-05-05T01:43:58.783Z,73.40
2023-05-05T01:44:58.738Z,73.10
2023-05-05T01:45:58.803Z,72.89
2023-05-05T01:46:58.707Z,72.79
2023-05-05T01:47:58.755Z,72.48
2023-05-05T01:48:58.692Z,72.79
2023-05-05T01:49:58.668Z,72.79
2023-05-05T01:50:58.724Z,73.10
2023-05-05T01:51:58.634Z,73.40
2023-05-05T01:52:58.642Z,72.99
2023-05-05T01:53:58.670Z,73.10
2023-05-05T01:54:58.616Z,72.99
2023-05-05T01:55:58.607Z,72.89
2023-05-05T01:56:58.614Z,73.20
2023-05-05T01:57:58.619Z,72.99
2023-05-05T01:58:58.545Z,72.89
2023-05-05T01:59:58.538Z,72.79
2023-05-05T02:00:58.541Z,72.79
2023-05-05T02:01:58.526Z,73.20
2023-05-05T02:02:58.557Z,73.10
2023-05-05T02:03:58.522Z,73.33
2023-05-05T02:04:58.482Z,73.44
2023-05-05T02:05:58.466Z,73.23
2023-05-05T02:06:58.457Z,73.64
2023-05-05T02:07:58.449Z,73.64
2023-05-05T02:08:58.520Z,73.54
2023-05-05T02:09:58.417Z,73.44
2023-05-05T02:10:58.390Z,73.33
2023-05-05T02:11:58.399Z,73.33
2023-05-05T02:12:58.445Z,73.44
2023-05-05T02:13:58.412Z,73.33
2023-05-05T02:14:58.365Z,73.85
2023-05-05T02:15:58.362Z,73.85
2023-05-05T02:16:58.339Z,73.74
2023-05-05T02:17:58.351Z,73.85
2023-05-05T02:18:58.292Z,74.15
2023-05-05T02:19:58.319Z,74.15
2023-05-05T02:20:58.269Z,74.26
2023-05-05T02:21:58.257Z,74.19
2023-05-05T02:22:58.264Z,74.49
2023-05-05T02:23:58.236Z,73.98
2023-05-05T02:24:58.227Z,74.08
2023-05-05T02:25:58.221Z,73.88
2023-05-05T02:26:58.233Z,73.88
2023-05-05T02:27:58.223Z,73.88
2023-05-05T02:28:58.191Z,73.68
2023-05-05T02:29:58.171Z,73.68
2023-05-05T02:30:58.179Z,73.88
2023-05-05T02:31:58.135Z,74.08
2023-05-05T02:32:58.142Z,74.19
2023-05-05T02:33:58.114Z,74.19
2023-05-05T02:34:58.088Z,73.98
2023-05-05T02:35:58.106Z,74.29
2023-05-05T02:36:58.079Z,74.39
2023-05-05T02:37:58.071Z,73.88
2023-05-05T02:38:58.061Z,73.98
2023-05-05T02:39:58.045Z,73.88
2023-05-05T02:40:58.011Z,74.19
2023-05-05T02:41:58.007Z,74.08
2023-05-05T02:42:58.007Z,73.98
2023-05-05T02:43:57.999Z,73.98
2023-05-05T02:44:57.974Z,73.88
2023-05-05T02:45:57.946Z,74.39
2023-05-05T02:46:57.958Z,73.98
2023-05-05T02:47:58.018Z,74.29
2023-05-05T02:48:57.908Z,74.53
2023-05-05T02:49:57.892Z,74.73
2023-05-05T02:50:57.896Z,74.22
2023-05-05T02:51:57.866Z,74.32
2023-05-05T02:52:57.865Z,74.43
2023-05-05T02:53:57.862Z,74.73
2023-05-05T02:54:57.838Z,74.63
2023-05-05T02:55:57.839Z,74.63
2023-05-05T02:56:57.823Z,74.73
2023-05-05T02:57:57.799Z,74.73
2023-05-05T02:58:57.781Z,74.73
2023-05-05T02:59:57.785Z,74.73
2023-05-05T03:00:57.762Z,74.84
2023-05-05T03:01:57.818Z,74.63
2023-05-05T03:02:57.821Z,74.73
2023-05-05T03:03:57.760Z,74.84
2023-05-05T03:04:57.728Z,74.84
2023-05-05T03:05:57.712Z,75.04
2023-05-05T03:06:57.671Z,75.04
2023-05-05T03:07:57.680Z,75.28
2023-05-05T03:08:57.648Z,75.28
2023-05-05T03:09:57.666Z,75.07
2023-05-05T03:10:57.638Z,75.59
2023-05-05T03:11:57.635Z,75.99
2023-05-05T03:12:57.687Z,75.79
2023-05-05T03:13:57.597Z,75.59
2023-05-05T03:14:57.565Z,75.69
2023-05-05T03:15:57.581Z,75.28
2023-05-05T03:17:04.614Z,75.07
2023-05-05T03:17:57.592Z,74.97
2023-05-05T03:18:57.527Z,74.87
2023-05-05T03:19:57.513Z,75.07
2023-05-05T03:20:57.527Z,75.18
2023-05-05T03:21:57.501Z,75.07
2023-05-05T03:22:57.465Z,75.28
2023-05-05T03:23:57.471Z,75.48
2023-05-05T03:24:57.469Z,75.48
2023-05-05T03:25:57.450Z,75.48
2023-05-05T03:26:57.413Z,75.89
2023-05-05T03:27:57.406Z,75.48
2023-05-05T03:28:57.409Z,75.28
2023-05-05T03:29:57.428Z,75.38
2023-05-05T03:30:57.381Z,75.79
2023-05-05T03:31:57.439Z,75.99
2023-05-05T03:32:57.404Z,75.79
2023-05-05T03:33:57.369Z,75.59
2023-05-05T03:34:57.332Z,75.69
2023-05-05T03:35:57.331Z,75.69
2023-05-05T03:36:57.300Z,75.38
2023-05-05T03:37:57.296Z,75.59
2023-05-05T03:38:57.251Z,75.48
2023-05-05T03:39:57.451Z,75.48
2023-05-05T03:40:57.242Z,75.79
2023-05-05T03:41:57.245Z,75.69
2023-05-05T03:42:57.250Z,75.89
2023-05-05T03:43:57.209Z,75.99
2023-05-05T03:44:57.236Z,75.89
2023-05-05T03:45:57.228Z,75.48
2023-05-05T03:46:57.177Z,75.62
2023-05-05T03:47:57.220Z,75.93
2023-05-05T03:48:57.275Z,75.89
2023-05-05T03:49:57.134Z,75.59
2023-05-05T03:50:57.136Z,75.59
2023-05-05T03:51:57.107Z,75.73
2023-05-05T03:52:57.096Z,75.82
2023-05-05T03:53:57.097Z,76.14
2023-05-05T03:54:57.066Z,76.34
2023-05-05T03:55:57.033Z,76.10
2023-05-05T03:56:57.044Z,75.79
2023-05-05T03:57:57.024Z,75.62
2023-05-05T03:58:57.015Z,75.79
2023-05-05T03:59:57.022Z,75.82
2023-05-05T04:00:56.993Z,76.14
2023-05-05T04:01:57.047Z,75.93
2023-05-05T04:02:57.033Z,76.03
2023-05-05T04:03:57.101Z,75.73
2023-05-05T04:04:56.946Z,75.93
2023-05-05T04:05:56.962Z,75.73
2023-05-05T04:06:56.905Z,75.62
2023-05-05T04:07:56.916Z,75.93
2023-05-05T04:08:56.890Z,75.73
2023-05-05T04:09:56.880Z,75.62
2023-05-05T04:10:56.874Z,76.03
2023-05-05T04:11:56.837Z,76.34
2023-05-05T04:12:57.026Z,75.62
2023-05-05T04:13:56.842Z,75.62
2023-05-05T04:14:56.835Z,75.42
2023-05-05T04:15:56.873Z,75.73
2023-05-05T04:16:56.788Z,75.79
2023-05-05T04:17:56.854Z,75.42
2023-05-05T04:18:56.801Z,75.11
2023-05-05T04:19:56.779Z,75.07
2023-05-05T04:20:56.822Z,75.38
2023-05-05T04:21:56.739Z,75.07
2023-05-05T04:22:56.722Z,74.77
2023-05-05T04:23:56.711Z,75.18
2023-05-05T04:24:56.667Z,75.07
2023-05-05T04:25:56.678Z,75.28
2023-05-05T04:26:56.667Z,75.69
2023-05-05T04:27:56.673Z,75.69
2023-05-05T04:28:56.613Z,75.38
2023-05-05T04:29:56.627Z,75.48
2023-05-05T04:30:56.617Z,75.69
2023-05-05T04:31:56.608Z,74.97
2023-05-05T04:32:56.656Z,75.28
2023-05-05T04:33:56.589Z,74.66
2023-05-05T04:34:56.555Z,75.07
2023-05-05T04:35:56.542Z,74.87
2023-05-05T04:36:56.541Z,74.77
2023-05-05T04:37:56.494Z,74.77
2023-05-05T04:38:56.545Z,74.56
2023-05-05T04:39:56.496Z,74.53
2023-05-05T04:40:56.481Z,74.63
2023-05-05T04:41:56.461Z,74.63
2023-05-05T04:42:56.464Z,74.02
2023-05-05T04:43:56.432Z,74.02
2023-05-05T04:44:56.412Z,73.91
2023-05-05T04:45:56.406Z,73.61
2023-05-05T04:46:56.426Z,73.68
2023-05-05T04:47:56.395Z,73.47
2023-05-05T04:48:56.372Z,73.36
2023-05-05T04:49:56.363Z,72.75
2023-05-05T04:50:56.354Z,73.16
2023-05-05T04:51:56.341Z,72.75
2023-05-05T04:52:56.322Z,73.47
2023-05-05T04:53:56.423Z,72.34
2023-05-05T04:54:56.286Z,72.55
2023-05-05T04:55:56.287Z,72.04
2023-05-05T04:56:56.297Z,72.34
2023-05-05T04:57:56.300Z,72.96
2023-05-05T04:58:56.268Z,72.86
2023-05-05T04:59:56.321Z,72.24
2023-05-05T05:00:56.194Z,71.90
2023-05-05T05:01:56.265Z,72.00
2023-05-05T05:02:56.224Z,72.41
2023-05-05T05:03:56.219Z,72.31
2023-05-05T05:04:56.165Z,71.59
2023-05-05T05:05:56.161Z,71.49
2023-05-05T05:06:58.981Z,71.70
2023-05-05T05:07:56.137Z,71.29
2023-05-05T05:08:56.129Z,71.39
2023-05-05T05:09:56.098Z,70.98
2023-05-05T05:10:56.088Z,71.19
2023-05-05T05:11:56.049Z,71.19
2023-05-05T05:12:56.091Z,71.49
2023-05-05T05:13:56.050Z,71.70
2023-05-05T05:14:56.034Z,71.08
2023-05-05T05:15:56.024Z,70.16
2023-05-05T05:16:56.009Z,70.67
2023-05-05T05:17:56.039Z,70.98
2023-05-05T05:18:55.999Z,70.57
2023-05-05T05:19:55.954Z,70.84
2023-05-05T05:20:55.964Z,70.34
2023-05-05T05:21:55.991Z,70.13
2023-05-05T05:22:55.968Z,70.13
2023-05-05T05:23:55.918Z,70.13
2023-05-05T05:24:55.893Z,69.62
2023-05-05T05:25:55.901Z,69.31
2023-05-05T05:26:55.909Z,68.77
2023-05-05T05:28:56.840Z,68.87
2023-05-05T05:29:55.833Z,69.07
2023-05-05T05:30:55.873Z,68.97
2023-05-05T05:31:55.953Z,68.57
2023-05-05T05:32:56.697Z,68.12
2023-05-05T05:33:55.938Z,68.43
2023-05-05T05:34:55.776Z,67.92
2023-05-05T05:35:55.742Z,66.90
2023-05-05T05:36:55.954Z,66.49
2023-05-05T05:37:55.734Z,66.59
2023-05-05T05:38:55.904Z,66.49
2023-05-05T05:39:55.695Z,66.69
2023-05-05T05:40:55.699Z,66.66
2023-05-05T05:41:55.856Z,66.86
2023-05-05T05:42:55.756Z,66.36
2023-05-05T05:43:55.724Z,65.74
2023-05-05T05:44:55.705Z,65.13
2023-05-05T05:45:55.770Z,66.36
2023-05-05T05:46:55.621Z,66.66
2023-05-05T05:47:55.701Z,65.13
2023-05-05T05:48:55.600Z,65.34
2023-05-05T05:49:55.608Z,65.44
2023-05-05T05:50:55.572Z,65.61
2023-05-05T05:51:55.566Z,66.02
2023-05-05T05:52:55.585Z,65.61
2023-05-05T05:53:58.172Z,65.10
2023-05-05T05:54:55.687Z,64.39
2023-05-05T05:55:55.525Z,63.85
2023-05-05T05:56:55.538Z,63.64
2023-05-05T05:57:55.495Z,63.54
2023-05-05T05:58:55.666Z,63.85
2023-05-05T05:59:55.455Z,63.34
2023-05-05T06:00:55.440Z,63.13
2023-05-05T06:01:55.449Z,63.75
2023-05-05T06:02:55.500Z,63.44
2023-05-05T06:03:55.570Z,63.03
2023-05-05T06:04:55.368Z,63.34
2023-05-05T06:05:55.358Z,62.93
2023-05-05T06:06:55.369Z,63.54
2023-05-05T06:07:55.368Z,63.34
2023-05-05T06:08:55.453Z,63.34
2023-05-05T06:09:55.333Z,63.31
2023-05-05T06:10:55.328Z,62.90
2023-05-05T06:11:55.312Z,62.59
2023-05-05T06:12:55.327Z,62.59
2023-05-05T06:13:55.249Z,62.18
2023-05-05T06:14:55.288Z,62.39
2023-05-05T06:15:55.331Z,62.80
2023-05-05T06:16:55.205Z,62.39
2023-05-05T06:17:55.317Z,63.41
2023-05-05T06:18:55.197Z,62.59
2023-05-05T06:19:55.163Z,62.87
2023-05-05T06:20:55.152Z,62.97
2023-05-05T06:21:55.130Z,63.07
2023-05-05T06:22:55.145Z,62.16
2023-05-05T06:23:55.145Z,62.26
2023-05-05T06:24:55.121Z,62.36
2023-05-05T06:25:55.088Z,62.56
2023-05-05T06:26:55.097Z,62.46
2023-05-05T06:27:55.067Z,62.36
2023-05-05T06:28:55.083Z,62.77
2023-05-05T06:29:55.043Z,62.36
2023-05-05T06:30:55.033Z,62.16
2023-05-05T06:31:55.050Z,62.97
2023-05-05T06:32:55.035Z,62.46
2023-05-05T06:33:55.010Z,62.56
2023-05-05T06:34:54.995Z,62.46
2023-05-05T06:35:54.991Z,63.15
2023-05-05T06:36:55.028Z,62.84
2023-05-05T06:37:54.949Z,61.93
2023-05-05T06:38:54.943Z,63.15
2023-05-05T06:39:54.917Z,62.02
2023-05-05T06:40:54.891Z,63.22
2023-05-05T06:41:54.924Z,61.99
2023-05-05T06:42:54.888Z,61.08
2023-05-05T06:43:54.863Z,61.15
2023-05-05T06:44:54.859Z,61.05
2023-05-05T06:45:54.890Z,61.05
2023-05-05T06:46:54.854Z,60.72
2023-05-05T06:47:54.830Z,59.70
2023-05-05T06:48:54.822Z,59.91
2023-05-05T06:49:54.800Z,60.08
2023-05-05T06:50:54.773Z,59.88
2023-05-05T06:51:54.756Z,59.57
2023-05-05T06:52:54.779Z,59.98
2023-05-05T06:53:54.747Z,60.69
2023-05-05T06:54:54.735Z,60.18
2023-05-05T06:55:54.706Z,60.49
2023-05-05T06:56:54.731Z,60.28
2023-05-05T06:57:54.715Z,59.91
2023-05-05T06:58:54.674Z,60.21
2023-05-05T06:59:54.707Z,60.21
2023-05-05T07:00:54.681Z,60.82
2023-05-05T07:01:54.637Z,60.72
2023-05-05T07:02:54.660Z,60.82
2023-05-05T07:03:54.671Z,60.31
2023-05-05T07:04:54.626Z,60.61
2023-05-05T07:05:54.605Z,60.61
2023-05-05T07:06:54.579Z,60.21
2023-05-05T07:07:54.617Z,60.00
2023-05-05T07:08:54.593Z,60.59
2023-05-05T07:09:54.529Z,60.79
2023-05-05T07:10:54.576Z,60.69
2023-05-05T07:11:54.521Z,62.01
2023-05-05T07:12:54.593Z,60.49
2023-05-05T07:13:54.478Z,61.40
2023-05-05T07:14:54.481Z,61.60
2023-05-05T07:15:54.524Z,60.76
2023-05-05T07:16:54.516Z,60.53
2023-05-05T07:17:54.520Z,59.92
2023-05-05T07:18:54.437Z,60.33
2023-05-05T07:19:54.399Z,60.33
2023-05-05T07:20:54.512Z,59.59
2023-05-05T07:21:54.393Z,59.48
2023-05-05T07:22:54.374Z,59.69
2023-05-05T07:23:54.354Z,59.77
2023-05-05T07:24:54.346Z,59.36
2023-05-05T07:25:54.395Z,59.16
2023-05-05T07:26:54.318Z,58.04
2023-05-05T07:27:54.345Z,58.85
2023-05-05T07:28:54.307Z,58.65
2023-05-05T07:29:54.311Z,58.24
2023-05-05T07:30:54.314Z,58.24
2023-05-05T07:31:54.277Z,58.17
2023-05-05T07:32:54.329Z,58.37
2023-05-05T07:33:54.247Z,58.78
2023-05-05T07:34:54.215Z,58.14
2023-05-05T07:35:54.191Z,58.24
2023-05-05T07:36:54.190Z,60.07
2023-05-05T07:37:54.164Z,58.85
2023-05-05T07:38:54.183Z,59.36
2023-05-05T07:39:54.145Z,58.85
2023-05-05T07:40:54.151Z,59.46
2023-05-05T07:41:54.105Z,59.56
2023-05-05T07:42:54.098Z,59.43
2023-05-05T07:43:54.095Z,59.03
2023-05-05T07:44:54.081Z,59.03
2023-05-05T07:45:54.068Z,58.22
2023-05-05T07:46:54.054Z,58.11
2023-05-05T07:47:54.102Z,58.31
2023-05-05T07:48:54.036Z,58.31
2023-05-05T07:49:54.002Z,59.00
2023-05-05T07:50:54.004Z,58.09
2023-05-05T07:51:54.009Z,57.98
2023-05-05T07:53:02.386Z,57.98
2023-05-05T07:53:54.967Z,58.59
2023-05-05T07:54:53.959Z,57.68
2023-05-05T07:55:53.973Z,58.18
2023-05-05T07:56:54.016Z,58.76
2023-05-05T07:57:53.904Z,58.67
2023-05-05T07:58:53.929Z,58.26
2023-05-05T07:59:53.890Z,59.07
2023-05-05T08:00:53.904Z,57.93
2023-05-05T08:01:55.045Z,56.74
2023-05-05T08:02:53.863Z,57.45
2023-05-05T08:03:53.868Z,57.24
2023-05-05T08:04:53.831Z,57.65
2023-05-05T08:05:53.793Z,57.53
2023-05-05T08:06:53.825Z,56.71
2023-05-05T08:07:53.774Z,56.61
2023-05-05T08:08:53.784Z,57.93
2023-05-05T08:09:53.778Z,57.62
2023-05-05T08:10:53.746Z,57.80
2023-05-05T08:11:53.739Z,57.90
2023-05-05T08:12:53.785Z,57.40
2023-05-05T08:13:53.719Z,58.48
2023-05-05T08:14:53.684Z,56.86
2023-05-05T08:15:53.714Z,56.56
2023-05-05T08:16:53.699Z,56.96
2023-05-05T08:17:53.709Z,57.14
2023-05-05T08:18:53.640Z,56.33
2023-05-05T08:19:53.637Z,56.33
2023-05-05T08:20:53.850Z,56.02
2023-05-05T08:21:53.619Z,56.43
2023-05-05T08:22:53.607Z,55.93
2023-05-05T08:23:53.573Z,55.82
2023-05-05T08:24:53.556Z,55.22
2023-05-05T08:25:53.562Z,55.52
2023-05-05T08:26:53.550Z,56.84
2023-05-05T08:27:53.554Z,55.82
2023-05-05T08:28:53.532Z,55.60
2023-05-05T08:29:53.535Z,55.09
2023-05-05T08:30:53.494Z,54.69
2023-05-05T08:31:53.702Z,56.20
2023-05-05T08:32:53.493Z,54.99
2023-05-05T08:33:53.462Z,56.20
2023-05-05T08:34:53.446Z,54.49
2023-05-05T08:35:53.456Z,55.09
2023-05-05T08:36:53.420Z,55.67
2023-05-05T08:37:53.427Z,55.87
2023-05-05T08:38:53.407Z,55.98
2023-05-05T08:39:53.435Z,54.25
2023-05-05T08:40:53.378Z,54.76
2023-05-05T08:41:53.346Z,54.43
2023-05-05T08:42:53.354Z,54.43
2023-05-05T08:43:53.318Z,54.63
2023-05-05T08:44:53.341Z,54.94
2023-05-05T08:45:53.300Z,53.93
2023-05-05T08:46:53.438Z,54.03
2023-05-05T08:47:53.297Z,53.83
2023-05-05T08:48:53.267Z,54.00
2023-05-05T08:49:53.367Z,55.11
2023-05-05T08:50:53.251Z,54.51
2023-05-05T08:51:53.230Z,53.98
2023-05-05T08:52:53.224Z,53.88
2023-05-05T08:53:53.206Z,52.97
2023-05-05T08:54:53.177Z,53.47
2023-05-05T08:55:53.149Z,53.55
2023-05-05T08:56:53.171Z,52.94
2023-05-05T08:57:53.128Z,52.84
2023-05-05T08:58:53.132Z,53.65
2023-05-05T08:59:53.106Z,53.45
2023-05-05T09:00:53.117Z,53.42
2023-05-05T09:01:53.090Z,53.32
2023-05-05T09:02:53.183Z,52.51
2023-05-05T09:03:53.050Z,52.82
2023-05-05T09:04:53.054Z,52.22
2023-05-05T09:05:53.033Z,52.22
2023-05-05T09:06:53.013Z,52.22
2023-05-05T09:07:53.014Z,52.51
2023-05-05T09:08:53.002Z,52.09
2023-05-05T09:09:52.981Z,52.69
2023-05-05T09:10:53.018Z,52.47
2023-05-05T09:11:52.961Z,51.36
2023-05-05T09:12:53.010Z,51.46
2023-05-05T09:13:52.924Z,51.46
2023-05-05T09:14:52.930Z,51.46
2023-05-05T09:15:53.043Z,51.26
2023-05-05T09:16:52.904Z,52.77
2023-05-05T09:18:00.018Z,52.06
2023-05-05T09:18:52.854Z,52.54
2023-05-05T09:19:52.861Z,51.73
2023-05-05T09:20:52.838Z,52.84
2023-05-05T09:21:52.846Z,51.54
2023-05-05T09:22:52.817Z,52.64
2023-05-05T09:23:52.797Z,52.11
2023-05-05T09:24:52.783Z,52.22
2023-05-05T09:25:52.780Z,51.81
2023-05-05T09:26:52.765Z,52.01
2023-05-05T09:27:52.755Z,51.31
2023-05-05T09:28:52.740Z,51.11
2023-05-05T09:29:52.736Z,52.22
2023-05-05T09:30:52.769Z,52.22
2023-05-05T09:31:52.778Z,51.11
2023-05-05T09:32:52.731Z,51.91
2023-05-05T09:33:52.657Z,51.49
2023-05-05T09:34:52.667Z,51.59
2023-05-05T09:35:52.664Z,50.58
2023-05-05T09:36:52.657Z,50.98
2023-05-05T09:37:52.656Z,52.47
2023-05-05T09:38:52.617Z,51.16
2023-05-05T09:39:52.598Z,52.26
2023-05-05T09:40:52.584Z,51.56
2023-05-05T09:41:52.611Z,51.66
2023-05-05T09:42:52.597Z,51.56
2023-05-05T09:43:52.795Z,50.76
2023-05-05T09:44:52.559Z,51.56
2023-05-05T09:45:52.639Z,51.16
2023-05-05T09:46:52.595Z,49.85
2023-05-05T09:47:58.796Z,51.56
2023-05-05T09:48:53.461Z,50.76
2023-05-05T09:49:52.533Z,51.56
2023-05-05T09:50:52.461Z,50.86
2023-05-05T09:51:52.519Z,51.06
2023-05-05T09:52:52.446Z,51.34
2023-05-05T09:53:52.405Z,51.74
2023-05-05T09:54:52.452Z,49.93
2023-05-05T09:55:52.407Z,50.73
2023-05-05T09:56:52.377Z,50.53
2023-05-05T09:57:52.390Z,49.63
2023-05-05T09:58:52.330Z,50.13
2023-05-05T09:59:52.345Z,49.73
2023-05-05T10:00:52.334Z,49.43
2023-05-05T10:01:52.390Z,48.43
2023-05-05T10:02:52.332Z,48.52
2023-05-05T10:03:52.390Z,49.53
2023-05-05T10:04:52.312Z,49.02
2023-05-05T10:05:52.256Z,48.63
2023-05-05T10:06:52.247Z,48.63
2023-05-05T10:07:52.257Z,49.73
2023-05-05T10:08:52.199Z,49.13
2023-05-05T10:09:52.281Z,48.50
2023-05-05T10:10:52.188Z,47.92
2023-05-05T10:11:52.170Z,48.93
2023-05-05T10:12:52.158Z,48.63
2023-05-05T10:13:52.168Z,48.52
2023-05-05T10:14:52.135Z,48.12
2023-05-05T10:15:52.204Z,48.63
2023-05-05T10:16:52.113Z,48.43
2023-05-05T10:18:06.021Z,48.93
2023-05-05T10:18:53.089Z,48.90
2023-05-05T10:19:52.086Z,49.10
2023-05-05T10:20:52.063Z,49.28
2023-05-05T10:21:52.067Z,49.18
2023-05-05T10:22:52.034Z,47.75
2023-05-05T10:23:52.017Z,48.66
2023-05-05T10:24:52.015Z,49.86
2023-05-05T10:25:51.985Z,49.74
2023-05-05T10:26:51.978Z,47.63
2023-05-05T10:27:51.975Z,48.41
2023-05-05T10:28:51.963Z,47.78
2023-05-05T10:29:51.971Z,47.08
2023-05-05T10:30:51.926Z,46.88
2023-05-05T10:31:51.942Z,46.66
2023-05-05T10:32:58.982Z,45.96
2023-05-05T10:33:53.020Z,45.16
2023-05-05T10:34:51.894Z,46.36
2023-05-05T10:35:51.905Z,45.58
2023-05-05T10:36:51.884Z,46.98
2023-05-05T10:37:51.858Z,46.28
2023-05-05T10:38:51.816Z,46.58
2023-05-05T10:39:51.821Z,47.49
2023-05-05T10:40:51.801Z,45.70
2023-05-05T10:41:51.809Z,46.81
2023-05-05T10:42:51.781Z,46.61
2023-05-05T10:43:51.839Z,47.50
2023-05-05T10:44:51.757Z,46.91
2023-05-05T10:45:51.824Z,47.41
2023-05-05T10:46:51.738Z,46.91
2023-05-05T10:47:51.770Z,48.28
2023-05-05T10:48:51.762Z,46.78
2023-05-05T10:49:51.705Z,47.78
2023-05-05T10:50:51.717Z,46.28
2023-05-05T10:51:51.735Z,47.16
2023-05-05T10:52:51.678Z,46.96
2023-05-05T10:53:51.673Z,47.36
2023-05-05T10:54:51.641Z,46.76
2023-05-05T10:55:51.609Z,46.44
2023-05-05T10:56:51.616Z,46.54
2023-05-05T10:57:51.605Z,45.04
2023-05-05T10:58:59.038Z,45.96
2023-05-05T10:59:52.600Z,46.56
2023-05-05T11:00:51.561Z,45.26
2023-05-05T11:01:51.524Z,45.98
2023-05-05T11:02:51.542Z,45.66
2023-05-05T11:03:51.553Z,46.26
2023-05-05T11:04:51.502Z,46.96
2023-05-05T11:05:51.476Z,46.56
2023-05-05T11:06:51.503Z,45.86
2023-05-05T11:07:51.486Z,46.16
2023-05-05T11:08:51.449Z,45.76
2023-05-05T11:09:51.459Z,46.16
2023-05-05T11:10:51.433Z,47.26
2023-05-05T11:11:51.406Z,46.36
2023-05-05T11:12:51.429Z,45.86
2023-05-05T11:13:51.389Z,46.06
2023-05-05T11:14:51.358Z,46.06
2023-05-05T11:15:51.365Z,44.96
2023-05-05T11:16:51.363Z,46.36
2023-05-05T11:17:51.395Z,45.86
2023-05-05T11:19:12.720Z,45.56
2023-05-05T11:19:51.347Z,44.96
2023-05-05T11:20:51.311Z,45.86
2023-05-05T11:21:51.280Z,46.16
2023-05-05T11:22:51.263Z,46.46
2023-05-05T11:23:51.271Z,46.24
2023-05-05T11:24:51.239Z,45.94
2023-05-05T11:25:51.260Z,45.43
2023-05-05T11:26:51.224Z,46.01
2023-05-05T11:27:51.195Z,44.93
2023-05-05T11:28:51.197Z,44.74
2023-05-05T11:29:52.160Z,45.74
2023-05-05T11:30:51.176Z,45.12
2023-05-05T11:31:51.139Z,45.21
2023-05-05T11:32:51.226Z,44.32
2023-05-05T11:33:51.134Z,43.62
2023-05-05T11:34:51.102Z,45.01
2023-05-05T11:35:51.103Z,44.70
2023-05-05T11:36:51.114Z,43.29
2023-05-05T11:37:51.081Z,44.20
2023-05-05T11:38:51.072Z,44.70
2023-05-05T11:39:51.077Z,43.70
2023-05-05T11:40:51.030Z,44.29
2023-05-05T11:41:51.128Z,44.37
2023-05-05T11:42:51.012Z,45.37
2023-05-05T11:43:50.984Z,45.27
2023-05-05T11:44:50.983Z,44.57
2023-05-05T11:45:51.009Z,44.37
2023-05-05T11:46:50.961Z,43.27
2023-05-05T11:47:50.998Z,44.47
2023-05-05T11:48:50.918Z,44.57
2023-05-05T11:49:50.938Z,44.97
2023-05-05T11:50:50.913Z,44.07
2023-05-05T11:51:50.888Z,44.97
2023-05-05T11:52:50.918Z,45.05
2023-05-05T11:53:50.884Z,44.55
2023-05-05T11:54:50.922Z,44.35
2023-05-05T11:55:50.893Z,43.37
2023-05-05T11:56:50.825Z,44.57
2023-05-05T11:57:50.817Z,44.17
2023-05-05T11:58:50.811Z,44.37
2023-05-05T11:59:50.845Z,44.79
2023-05-05T12:00:50.775Z,45.20
2023-05-05T12:01:50.773Z,44.29
2023-05-05T12:02:50.830Z,44.29
2023-05-05T12:03:50.883Z,43.49
2023-05-05T12:04:50.877Z,44.09
2023-05-05T12:05:50.741Z,43.59
2023-05-05T12:06:50.697Z,43.67
2023-05-05T12:07:50.684Z,45.07
2023-05-05T12:08:50.672Z,43.87
2023-05-05T12:09:50.654Z,45.17
2023-05-05T12:10:50.662Z,44.17
2023-05-05T12:11:50.633Z,44.75
2023-05-05T12:12:51.028Z,43.75
2023-05-05T12:13:50.603Z,43.87
2023-05-05T12:14:50.612Z,43.35
2023-05-05T12:15:50.612Z,43.65
2023-05-05T12:16:50.581Z,43.65
2023-05-05T12:17:50.605Z,44.15
2023-05-05T12:18:50.554Z,43.55
2023-05-05T12:19:50.551Z,43.85
2023-05-05T12:20:50.527Z,44.85
2023-05-05T12:21:50.660Z,44.25
2023-05-05T12:22:50.518Z,43.65
2023-05-05T12:23:50.478Z,44.65
2023-05-05T12:24:51.029Z,43.73
2023-05-05T12:25:50.476Z,43.73
2023-05-05T12:26:50.451Z,43.61
2023-05-05T12:27:50.436Z,43.01
2023-05-05T12:28:50.429Z,43.01
2023-05-05T12:29:50.408Z,42.71
2023-05-05T12:30:50.741Z,42.91
2023-05-05T12:31:50.403Z,42.71
2023-05-05T12:32:50.429Z,44.51
2023-05-05T12:33:50.348Z,43.31
2023-05-05T12:34:50.356Z,43.21
2023-05-05T12:35:50.334Z,43.31
2023-05-05T12:36:50.321Z,43.91
2023-05-05T12:37:50.293Z,43.31
2023-05-05T12:38:50.318Z,42.91
2023-05-05T12:39:50.297Z,42.21
2023-05-05T12:40:50.262Z,43.61
2023-05-05T12:41:50.244Z,44.51
2023-05-05T12:42:50.236Z,43.21
2023-05-05T12:43:50.225Z,43.59
2023-05-05T12:44:50.212Z,43.09
2023-05-05T12:45:50.206Z,43.89
2023-05-05T12:46:50.195Z,42.89
2023-05-05T12:47:50.210Z,43.19
2023-05-05T12:48:50.191Z,44.07
2023-05-05T12:49:50.154Z,43.49
2023-05-05T12:50:50.157Z,42.40
2023-05-05T12:51:50.126Z,42.40
2023-05-05T12:52:50.131Z,43.11